createdAt,value
2022-10-17T04:30:45.452Z,17.26
2022-10-17T04:31:42.697Z,17.28
2022-10-17T04:32:42.706Z,17.21
2022-10-17T04:33:42.675Z,17.25
2022-10-17T04:34:42.684Z,17.15
2022-10-17T04:35:42.664Z,17.16
2022-10-17T04:36:42.647Z,17.23
2022-10-17T04:37:42.648Z,17.19
2022-10-17T04:38:42.641Z,17.22
2022-10-17T04:39:42.638Z,17.21
2022-10-17T04:40:42.617Z,17.19
2022-10-17T04:41:42.594Z,17.23
2022-10-17T04:42:42.587Z,17.19
2022-10-17T04:43:45.540Z,17.21
2022-10-17T04:44:43.594Z,17.08
2022-10-17T04:45:42.549Z,17.12
2022-10-17T04:46:42.567Z,17.16
2022-10-17T04:47:42.529Z,17.12
2022-10-17T04:48:42.515Z,17.19
2022-10-17T04:49:42.553Z,17.15
2022-10-17T04:50:42.500Z,17.15
2022-10-17T04:51:42.508Z,17.14
2022-10-17T04:52:42.489Z,17.08
2022-10-17T04:53:42.476Z,17.12
2022-10-17T04:54:42.455Z,17.14
2022-10-17T04:55:42.439Z,17.12
2022-10-17T04:56:42.487Z,17.18
2022-10-17T04:57:42.422Z,17.11
2022-10-17T04:58:42.409Z,17.16
2022-10-17T04:59:42.422Z,17.12
2022-10-17T05:00:42.551Z,17.15
2022-10-17T05:01:42.400Z,17.08
2022-10-17T05:02:42.378Z,17.06
2022-10-17T05:03:42.359Z,17.14
2022-10-17T05:04:42.380Z,17.12
2022-10-17T05:05:42.331Z,17.11
2022-10-17T05:06:42.313Z,17.15
2022-10-17T05:07:42.405Z,17.04
2022-10-17T05:08:42.316Z,17.15
2022-10-17T05:09:42.295Z,17.21
2022-10-17T05:10:42.290Z,17.11
2022-10-17T05:11:42.267Z,17.12
2022-10-17T05:12:42.276Z,17.16
2022-10-17T05:13:42.234Z,17.12
2022-10-17T05:14:42.226Z,17.18
2022-10-17T05:15:42.230Z,17.08
2022-10-17T05:16:42.223Z,17.15
2022-10-17T05:17:42.226Z,17.08
2022-10-17T05:18:42.199Z,17.15
2022-10-17T05:19:42.210Z,17.11
2022-10-17T05:20:42.196Z,17.08
2022-10-17T05:21:42.147Z,17.07
2022-10-17T05:22:42.462Z,17.12
2022-10-17T05:23:42.121Z,17.08
2022-10-17T05:24:42.131Z,17.12
2022-10-17T05:25:42.120Z,17.12
2022-10-17T05:26:42.100Z,17.14
2022-10-17T05:27:42.101Z,17.15
2022-10-17T05:28:42.100Z,17.11
2022-10-17T05:29:42.055Z,17.11
2022-10-17T05:30:42.095Z,17.08
2022-10-17T05:31:42.071Z,17.11
2022-10-17T05:32:42.022Z,17.08
2022-10-17T05:33:42.043Z,17.07
2022-10-17T05:34:42.043Z,17.08
2022-10-17T05:35:42.001Z,17.16
2022-10-17T05:36:42.045Z,17.07
2022-10-17T05:37:41.972Z,17.14
2022-10-17T05:38:41.965Z,17.21
2022-10-17T05:39:41.971Z,17.21
2022-10-17T05:40:41.981Z,17.08
2022-10-17T05:41:42.005Z,17.16
2022-10-17T05:42:41.958Z,17.11
2022-10-17T05:43:41.931Z,17.15
2022-10-17T05:44:41.948Z,17.00
2022-10-17T05:45:41.893Z,17.12
2022-10-17T05:46:42.111Z,17.11
2022-10-17T05:47:41.868Z,17.08
2022-10-17T05:48:41.856Z,17.16
2022-10-17T05:49:46.421Z,17.04
2022-10-17T05:50:42.858Z,17.03
2022-10-17T05:51:41.844Z,17.16
2022-10-17T05:52:43.910Z,17.04
2022-10-17T05:53:41.805Z,17.15
2022-10-17T05:54:41.791Z,17.12
2022-10-17T05:55:41.773Z,17.06
2022-10-17T05:56:41.776Z,17.14
2022-10-17T05:57:41.752Z,17.06
2022-10-17T05:58:50.945Z,17.03
2022-10-17T05:59:42.724Z,17.06
2022-10-17T06:00:41.824Z,17.06
2022-10-17T06:01:41.768Z,17.04
2022-10-17T06:02:41.690Z,16.98
2022-10-17T06:03:41.713Z,17.08
2022-10-17T06:04:41.676Z,17.12
2022-10-17T06:05:41.672Z,17.04
2022-10-17T06:06:41.705Z,17.06
2022-10-17T06:07:41.634Z,17.08
2022-10-17T06:08:41.660Z,17.01
2022-10-17T06:09:41.682Z,17.00
2022-10-17T06:10:41.603Z,17.07
2022-10-17T06:11:41.607Z,17.00
2022-10-17T06:12:41.586Z,17.08
2022-10-17T06:13:41.600Z,17.06
2022-10-17T06:14:41.589Z,17.11
2022-10-17T06:15:41.750Z,17.08
2022-10-17T06:16:41.531Z,17.12
2022-10-17T06:17:41.576Z,17.14
2022-10-17T06:18:41.707Z,17.25
2022-10-17T06:19:41.514Z,17.33
2022-10-17T06:20:45.266Z,17.36
2022-10-17T06:21:41.508Z,17.26
2022-10-17T06:22:41.513Z,17.41
2022-10-17T06:23:41.547Z,17.38
2022-10-17T06:24:41.491Z,17.41
2022-10-17T06:25:41.432Z,17.48
2022-10-17T06:26:41.458Z,17.43
2022-10-17T06:27:41.528Z,17.41
2022-10-17T06:28:41.473Z,17.44
2022-10-17T06:29:41.403Z,17.41
2022-10-17T06:30:41.412Z,17.31
2022-10-17T06:31:41.433Z,17.34
2022-10-17T06:32:41.357Z,17.33
2022-10-17T06:33:41.370Z,17.31
2022-10-17T06:34:41.399Z,17.34
2022-10-17T06:35:41.331Z,17.36
2022-10-17T06:36:41.311Z,17.31
2022-10-17T06:37:41.661Z,17.40
2022-10-17T06:38:41.300Z,17.44
2022-10-17T06:39:41.321Z,17.43
2022-10-17T06:40:41.260Z,17.40
2022-10-17T06:41:41.272Z,17.51
2022-10-17T06:42:41.278Z,17.43
2022-10-17T06:43:41.342Z,17.49
2022-10-17T06:44:41.292Z,17.51
2022-10-17T06:45:41.218Z,17.54
2022-10-17T06:46:41.269Z,17.41
2022-10-17T06:47:41.192Z,17.48
2022-10-17T06:48:41.181Z,17.56
2022-10-17T06:49:41.181Z,17.49
2022-10-17T06:50:41.193Z,17.44
2022-10-17T06:51:41.148Z,17.59
2022-10-17T06:52:41.146Z,17.52
2022-10-17T06:53:41.128Z,17.66
2022-10-17T06:54:41.229Z,17.64
2022-10-17T06:55:41.106Z,17.70
2022-10-17T06:56:41.086Z,17.72
2022-10-17T06:57:41.071Z,17.79
2022-10-17T06:58:41.155Z,17.79
2022-10-17T06:59:41.074Z,17.95
2022-10-17T07:00:41.209Z,17.99
2022-10-17T07:01:43.258Z,18.02
2022-10-17T07:02:42.037Z,18.00
2022-10-17T07:03:41.176Z,18.18
2022-10-17T07:04:41.005Z,18.20
2022-10-17T07:05:41.000Z,18.27
2022-10-17T07:06:41.008Z,18.32
2022-10-17T07:07:43.144Z,18.36
2022-10-17T07:08:40.956Z,18.42
2022-10-17T07:09:40.970Z,18.54
2022-10-17T07:10:40.942Z,18.52
2022-10-17T07:11:41.002Z,18.54
2022-10-17T07:12:40.921Z,18.65
2022-10-17T07:13:40.969Z,18.72
2022-10-17T07:14:40.919Z,18.75
2022-10-17T07:15:40.897Z,18.66
2022-10-17T07:16:40.916Z,18.67
2022-10-17T07:17:40.907Z,18.72
2022-10-17T07:18:40.846Z,18.78
2022-10-17T07:19:40.858Z,18.80
2022-10-17T07:20:40.828Z,18.82
2022-10-17T07:21:40.836Z,18.82
2022-10-17T07:22:40.823Z,18.84
2022-10-17T07:23:40.824Z,18.82
2022-10-17T07:24:40.915Z,18.92
2022-10-17T07:25:40.824Z,18.94
2022-10-17T07:26:40.860Z,18.81
2022-10-17T07:27:40.798Z,18.80
2022-10-17T07:28:40.776Z,18.72
2022-10-17T07:29:40.783Z,18.67
2022-10-17T07:30:40.725Z,18.65
2022-10-17T07:31:40.718Z,18.63
2022-10-17T07:32:40.693Z,18.66
2022-10-17T07:33:40.731Z,18.52
2022-10-17T07:34:40.698Z,18.65
2022-10-17T07:35:40.670Z,18.52
2022-10-17T07:36:40.700Z,18.52
2022-10-17T07:37:40.645Z,18.52
2022-10-17T07:38:40.636Z,18.44
2022-10-17T07:39:40.620Z,18.58
2022-10-17T07:40:40.629Z,18.63
2022-10-17T07:41:40.593Z,18.73
2022-10-17T07:42:40.684Z,18.65
2022-10-17T07:43:40.571Z,18.69
2022-10-17T07:44:40.631Z,18.72
2022-10-17T07:45:40.562Z,18.76
2022-10-17T07:46:40.562Z,18.80
2022-10-17T07:47:40.535Z,18.80
2022-10-17T07:48:40.524Z,18.91
2022-10-17T07:49:40.521Z,18.87
2022-10-17T07:50:40.496Z,18.84
2022-10-17T07:51:40.590Z,19.02
2022-10-17T07:52:40.483Z,18.99
2022-10-17T07:53:42.741Z,19.02
2022-10-17T07:54:40.467Z,18.98
2022-10-17T07:55:40.443Z,19.07
2022-10-17T07:56:40.444Z,19.10
2022-10-17T07:57:40.425Z,19.16
2022-10-17T07:58:40.452Z,19.14
2022-10-17T07:59:40.421Z,19.13
2022-10-17T08:00:40.468Z,19.26
2022-10-17T08:01:40.409Z,19.28
2022-10-17T08:02:40.358Z,19.37
2022-10-17T08:03:40.388Z,19.40
2022-10-17T08:04:40.414Z,19.40
2022-10-17T08:05:40.332Z,19.37
2022-10-17T08:06:40.401Z,19.29
2022-10-17T08:07:40.333Z,19.41
2022-10-17T08:08:40.303Z,19.36
2022-10-17T08:09:40.285Z,19.47
2022-10-17T08:10:40.294Z,19.48
2022-10-17T08:11:40.285Z,19.55
2022-10-17T08:12:40.251Z,19.66
2022-10-17T08:13:40.273Z,19.74
2022-10-17T08:14:40.251Z,19.78
2022-10-17T08:15:40.241Z,19.83
2022-10-17T08:16:40.228Z,19.87
2022-10-17T08:17:40.230Z,19.80
2022-10-17T08:18:40.203Z,19.74
2022-10-17T08:19:40.174Z,19.84
2022-10-17T08:20:40.169Z,19.88
2022-10-17T08:21:40.184Z,19.88
2022-10-17T08:22:40.168Z,19.87
2022-10-17T08:23:40.149Z,19.83
2022-10-17T08:24:40.126Z,19.94
2022-10-17T08:25:40.127Z,19.99
2022-10-17T08:26:43.378Z,20.05
2022-10-17T08:27:41.136Z,20.10
2022-10-17T08:28:40.222Z,19.98
2022-10-17T08:29:40.069Z,19.95
2022-10-17T08:30:40.126Z,19.99
2022-10-17T08:31:40.082Z,20.01
2022-10-17T08:32:40.045Z,19.94
2022-10-17T08:33:40.038Z,19.96
2022-10-17T08:34:40.034Z,20.10
2022-10-17T08:35:40.076Z,20.02
2022-10-17T08:36:40.029Z,19.92
2022-10-17T08:37:40.030Z,19.91
2022-10-17T08:38:43.124Z,19.86
2022-10-17T08:39:40.017Z,19.86
2022-10-17T08:40:40.074Z,19.87
2022-10-17T08:41:39.952Z,19.74
2022-10-17T08:42:39.943Z,19.77
2022-10-17T08:43:39.937Z,19.76
2022-10-17T08:44:39.971Z,19.66
2022-10-17T08:45:39.932Z,19.66
2022-10-17T08:46:39.937Z,19.65
2022-10-17T08:47:39.883Z,19.62
2022-10-17T08:48:42.751Z,19.68
2022-10-17T08:49:40.897Z,19.73
2022-10-17T08:50:39.844Z,19.76
2022-10-17T08:51:39.828Z,19.76
2022-10-17T08:52:39.852Z,19.78
2022-10-17T08:53:39.813Z,19.78
2022-10-17T08:54:39.796Z,19.81
2022-10-17T08:55:42.797Z,19.81
2022-10-17T08:56:48.562Z,19.80
2022-10-17T08:57:40.816Z,19.77
2022-10-17T08:58:39.757Z,19.69
2022-10-17T08:59:39.816Z,19.80
2022-10-17T09:00:39.744Z,19.84
2022-10-17T09:01:39.728Z,19.92
2022-10-17T09:02:39.843Z,19.92
2022-10-17T09:03:39.727Z,19.88
2022-10-17T09:04:39.713Z,19.88
2022-10-17T09:05:39.689Z,19.95
2022-10-17T09:06:39.697Z,19.99
2022-10-17T09:07:39.663Z,20.01
2022-10-17T09:08:39.657Z,20.16
2022-10-17T09:09:39.663Z,20.17
2022-10-17T09:10:39.627Z,20.16
2022-10-17T09:11:39.638Z,20.23
2022-10-17T09:12:39.601Z,20.28
2022-10-17T09:13:39.600Z,20.26
2022-10-17T09:14:39.619Z,20.32
2022-10-17T09:15:39.582Z,20.38
2022-10-17T09:16:39.562Z,20.48
2022-10-17T09:17:39.553Z,20.62
2022-10-17T09:18:39.567Z,20.51
2022-10-17T09:19:39.576Z,20.48
2022-10-17T09:20:39.518Z,20.59
2022-10-17T09:21:39.503Z,20.59
2022-10-17T09:22:39.529Z,20.74
2022-10-17T09:23:41.830Z,20.85
2022-10-17T09:24:39.480Z,21.04
2022-10-17T09:25:39.483Z,21.13
2022-10-17T09:26:39.471Z,21.21
2022-10-17T09:27:39.457Z,21.32
2022-10-17T09:28:39.478Z,21.43
2022-10-17T09:29:43.742Z,21.54
2022-10-17T09:30:45.227Z,21.67
2022-10-17T09:31:40.390Z,21.80
2022-10-17T09:32:39.432Z,21.82
2022-10-17T09:33:53.938Z,21.84
2022-10-17T09:34:40.406Z,21.74
2022-10-17T09:35:39.377Z,21.68
2022-10-17T09:36:39.347Z,21.56
2022-10-17T09:37:39.331Z,21.54
2022-10-17T09:38:39.361Z,21.62
2022-10-17T09:39:39.313Z,21.61
2022-10-17T09:40:39.295Z,21.52
2022-10-17T09:41:45.438Z,21.35
2022-10-17T09:42:40.298Z,21.43
2022-10-17T09:43:39.282Z,21.64
2022-10-17T09:44:39.312Z,21.59
2022-10-17T09:45:39.320Z,21.67
2022-10-17T09:46:39.239Z,21.68
2022-10-17T09:47:39.219Z,21.71
2022-10-17T09:48:39.230Z,21.69
2022-10-17T09:49:39.226Z,21.68
2022-10-17T09:50:39.207Z,21.59
2022-10-17T09:51:39.210Z,21.61
2022-10-17T09:52:39.191Z,21.52
2022-10-17T09:53:39.158Z,21.47
2022-10-17T09:54:39.167Z,21.46
2022-10-17T09:55:39.131Z,21.52
2022-10-17T09:56:39.139Z,21.47
2022-10-17T09:57:39.144Z,21.47
2022-10-17T09:58:39.101Z,21.54
2022-10-17T09:59:39.109Z,21.38
2022-10-17T10:00:39.196Z,21.56
2022-10-17T10:01:39.064Z,21.54
2022-10-17T10:02:39.102Z,21.53
2022-10-17T10:03:39.065Z,21.58
2022-10-17T10:04:53.070Z,21.50
2022-10-17T10:05:40.027Z,21.53
2022-10-17T10:06:39.029Z,21.52
2022-10-17T10:07:39.042Z,21.54
2022-10-17T10:08:38.987Z,21.65
2022-10-17T10:09:40.194Z,21.67
2022-10-17T10:10:38.970Z,21.88
2022-10-17T10:11:38.995Z,21.90
2022-10-17T10:12:38.965Z,22.09
2022-10-17T10:13:38.951Z,22.14
2022-10-17T10:14:38.924Z,22.09
2022-10-17T10:15:38.951Z,22.28
2022-10-17T10:16:38.926Z,22.40
2022-10-17T10:17:38.926Z,22.52
2022-10-17T10:18:38.893Z,22.68
2022-10-17T10:19:38.902Z,22.79
2022-10-17T10:20:38.880Z,22.82
2022-10-17T10:21:38.854Z,23.09
2022-10-17T10:22:38.880Z,23.05
2022-10-17T10:23:38.858Z,23.17
2022-10-17T10:24:38.832Z,23.23
2022-10-17T10:25:38.806Z,23.31
2022-10-17T10:26:38.841Z,23.35
2022-10-17T10:27:38.786Z,23.23
2022-10-17T10:28:38.828Z,23.09
2022-10-17T10:29:38.764Z,22.91
2022-10-17T10:30:39.931Z,22.83
2022-10-17T10:31:38.764Z,22.65
2022-10-17T10:32:38.723Z,22.68
2022-10-17T10:33:41.577Z,22.65
2022-10-17T10:34:38.721Z,22.62
2022-10-17T10:35:38.699Z,22.62
2022-10-17T10:36:38.707Z,22.54
2022-10-17T10:37:38.689Z,22.55
2022-10-17T10:38:38.702Z,22.52
2022-10-17T10:39:38.659Z,22.58
2022-10-17T10:40:38.655Z,22.77
2022-10-17T10:41:38.665Z,22.85
2022-10-17T10:42:38.674Z,22.90
2022-10-17T10:43:38.626Z,23.05
2022-10-17T10:44:38.623Z,23.02
2022-10-17T10:45:54.130Z,23.25
2022-10-17T10:46:39.588Z,23.19
2022-10-17T10:47:38.600Z,23.20
2022-10-17T10:48:38.578Z,23.20
2022-10-17T10:49:38.621Z,23.17
2022-10-17T10:50:42.996Z,23.20
2022-10-17T10:51:39.524Z,23.19
2022-10-17T10:52:38.534Z,22.98
2022-10-17T10:53:38.517Z,22.85
2022-10-17T10:55:38.505Z,22.88
2022-10-17T10:56:38.478Z,23.01
2022-10-17T10:57:38.490Z,23.09
2022-10-17T10:58:41.832Z,23.20
2022-10-17T10:59:38.447Z,23.31
2022-10-17T11:00:38.493Z,23.23
2022-10-17T11:01:38.488Z,23.22
2022-10-17T11:02:38.412Z,23.20
2022-10-17T11:03:38.467Z,22.90
2022-10-17T11:04:38.423Z,22.88
2022-10-17T11:05:38.446Z,22.86
2022-10-17T11:06:38.371Z,22.85
2022-10-17T11:07:38.382Z,22.85
2022-10-17T11:08:38.335Z,22.76
2022-10-17T11:09:38.344Z,22.62
2022-10-17T11:10:38.357Z,22.49
2022-10-17T11:11:38.332Z,22.45
2022-10-17T11:12:38.345Z,22.43
2022-10-17T11:13:38.329Z,22.45
2022-10-17T11:14:38.296Z,22.31
2022-10-17T11:15:38.278Z,22.33
2022-10-17T11:16:38.261Z,22.30
2022-10-17T11:17:38.285Z,22.30
2022-10-17T11:18:38.258Z,22.31
2022-10-17T11:19:38.249Z,22.28
2022-10-17T11:20:38.216Z,22.25
2022-10-17T11:21:38.249Z,22.30
2022-10-17T11:22:38.579Z,22.27
2022-10-17T11:23:38.180Z,22.24
2022-10-17T11:24:38.169Z,22.22
2022-10-17T11:25:38.185Z,22.17
2022-10-17T11:26:38.192Z,22.15
2022-10-17T11:27:38.787Z,22.22
2022-10-17T11:28:38.188Z,22.21
2022-10-17T11:29:38.130Z,22.06
2022-10-17T11:30:38.172Z,22.06
2022-10-17T11:31:38.116Z,22.18
2022-10-17T11:32:38.085Z,22.15
2022-10-17T11:33:38.114Z,22.12
2022-10-17T11:34:38.066Z,22.18
2022-10-17T11:35:38.067Z,22.22
2022-10-17T11:36:38.041Z,22.20
2022-10-17T11:37:39.525Z,22.22
2022-10-17T11:38:38.038Z,22.24
2022-10-17T11:39:38.077Z,22.28
2022-10-17T11:40:38.007Z,22.22
2022-10-17T11:41:37.989Z,22.28
2022-10-17T11:42:38.003Z,22.24
2022-10-17T11:43:37.969Z,22.35
2022-10-17T11:44:37.984Z,22.25
2022-10-17T11:45:37.959Z,22.15
2022-10-17T11:46:37.954Z,22.21
2022-10-17T11:47:37.924Z,22.18
2022-10-17T11:48:37.927Z,22.18
2022-10-17T11:49:40.700Z,22.14
2022-10-17T11:53:05.433Z,22.28
2022-10-17T11:53:38.863Z,22.15
2022-10-17T11:54:37.850Z,22.24
2022-10-17T11:55:37.859Z,22.17
2022-10-17T11:56:41.863Z,22.20
2022-10-17T11:57:38.804Z,22.14
2022-10-17T11:58:37.832Z,22.14
2022-10-17T11:59:37.808Z,22.17
2022-10-17T12:00:40.720Z,22.15
2022-10-17T12:01:38.049Z,22.18
2022-10-17T12:02:37.767Z,22.14
2022-10-17T12:03:37.823Z,22.15
2022-10-17T12:04:37.795Z,22.14
2022-10-17T12:05:37.716Z,22.18
2022-10-17T12:06:37.726Z,22.21
2022-10-17T12:07:37.764Z,22.15
2022-10-17T12:08:37.700Z,22.10
2022-10-17T12:09:37.714Z,22.20
2022-10-17T12:10:37.672Z,22.14
2022-10-17T12:11:37.683Z,22.07
2022-10-17T12:12:37.680Z,22.09
2022-10-17T12:13:37.634Z,22.05
2022-10-17T12:14:37.735Z,22.14
2022-10-17T12:15:37.748Z,22.05
2022-10-17T12:16:37.660Z,22.00
2022-10-17T12:17:37.584Z,22.05
2022-10-17T12:18:37.588Z,21.96
2022-10-17T12:19:37.647Z,21.94
2022-10-17T12:20:37.563Z,21.99
2022-10-17T12:21:40.404Z,21.99
2022-10-17T12:22:38.542Z,21.94
2022-10-17T12:23:37.524Z,21.94
2022-10-17T12:24:37.560Z,21.96
2022-10-17T12:25:37.555Z,21.88
2022-10-17T12:26:37.491Z,21.84
2022-10-17T12:27:37.489Z,21.83
2022-10-17T12:28:37.495Z,21.96
2022-10-17T12:29:37.460Z,21.86
2022-10-17T12:30:37.498Z,21.90
2022-10-17T12:31:37.433Z,21.83
2022-10-17T12:32:53.342Z,21.84
2022-10-17T12:33:38.438Z,21.94
2022-10-17T12:34:37.463Z,21.86
2022-10-17T12:35:37.400Z,21.92
2022-10-17T12:36:37.397Z,21.92
2022-10-17T12:37:37.371Z,21.91
2022-10-17T12:38:37.409Z,21.88
2022-10-17T12:39:37.396Z,21.82
2022-10-17T12:40:37.354Z,21.82
2022-10-17T12:41:37.328Z,21.83
2022-10-17T12:42:37.332Z,21.86
2022-10-17T12:43:39.674Z,21.79
2022-10-17T12:44:38.336Z,21.77
2022-10-17T12:45:37.297Z,21.80
2022-10-17T12:46:37.290Z,21.77
2022-10-17T12:47:37.258Z,21.72
2022-10-17T12:48:37.253Z,21.82
2022-10-17T12:49:37.261Z,21.82
2022-10-17T12:50:38.154Z,21.88
2022-10-17T12:51:37.962Z,21.80
2022-10-17T12:52:37.245Z,21.83
2022-10-17T12:53:37.206Z,21.71
2022-10-17T12:54:47.024Z,21.83
2022-10-17T12:55:38.193Z,21.82
2022-10-17T12:56:37.175Z,21.69
2022-10-17T12:57:37.664Z,21.72
2022-10-17T12:58:37.180Z,21.74
2022-10-17T12:59:37.148Z,21.75
2022-10-17T13:00:37.212Z,21.68
2022-10-17T13:01:37.150Z,21.68
2022-10-17T13:02:37.125Z,21.65
2022-10-17T13:03:37.089Z,21.71
2022-10-17T13:04:37.095Z,21.68
2022-10-17T13:05:37.083Z,21.65
2022-10-17T13:06:37.053Z,21.71
2022-10-17T13:07:37.046Z,21.68
2022-10-17T13:08:37.057Z,21.68
2022-10-17T13:09:37.024Z,21.69
2022-10-17T13:10:38.834Z,21.67
2022-10-17T13:11:37.016Z,21.59
2022-10-17T13:12:41.119Z,21.68
2022-10-17T13:13:36.992Z,21.65
2022-10-17T13:14:36.972Z,21.72
2022-10-17T13:15:36.962Z,21.64
2022-10-17T13:16:37.041Z,21.68
2022-10-17T13:17:40.615Z,21.69
2022-10-17T13:18:37.977Z,21.65
2022-10-17T13:20:36.912Z,21.61
2022-10-17T13:21:36.896Z,21.59
2022-10-17T13:22:36.886Z,21.52
2022-10-17T13:23:36.926Z,21.56
2022-10-17T13:24:36.867Z,21.47
2022-10-17T13:25:39.508Z,21.53
2022-10-17T13:26:36.868Z,21.53
2022-10-17T13:27:36.853Z,21.49
2022-10-17T13:28:39.376Z,21.47
2022-10-17T13:29:36.847Z,21.49
2022-10-17T13:30:36.800Z,21.58
2022-10-17T13:31:36.801Z,21.54
2022-10-17T13:32:36.779Z,21.49
2022-10-17T13:33:36.758Z,21.50
2022-10-17T13:34:36.777Z,21.53
2022-10-17T13:35:55.728Z,21.53
2022-10-17T13:36:37.740Z,21.52
2022-10-17T13:37:36.749Z,21.46
2022-10-17T13:38:39.013Z,21.42
2022-10-17T13:39:54.364Z,21.43
2022-10-17T13:40:49.051Z,21.50
2022-10-17T13:41:37.685Z,21.50
2022-10-17T13:42:36.697Z,21.47
2022-10-17T13:43:36.646Z,21.47
2022-10-17T13:44:38.542Z,21.47
2022-10-17T13:45:36.626Z,21.43
2022-10-17T13:46:38.391Z,21.47
2022-10-17T13:47:36.634Z,21.40
2022-10-17T13:48:36.600Z,21.35
2022-10-17T13:49:36.616Z,21.40
2022-10-17T13:50:44.756Z,21.38
2022-10-17T13:51:37.578Z,21.38
2022-10-17T13:52:36.543Z,21.38
2022-10-17T13:53:36.598Z,21.43
2022-10-17T13:54:36.534Z,21.43
2022-10-17T13:55:36.525Z,21.37
2022-10-17T13:56:36.505Z,21.38
2022-10-17T13:57:36.516Z,21.38
2022-10-17T13:58:36.496Z,21.35
2022-10-17T13:59:36.513Z,21.38
2022-10-17T14:00:36.565Z,21.38
2022-10-17T14:01:36.468Z,21.35
2022-10-17T14:02:36.483Z,21.40
2022-10-17T14:03:48.165Z,21.32
2022-10-17T14:05:04.016Z,21.31
2022-10-17T14:05:37.431Z,21.32
2022-10-17T14:06:36.413Z,21.32
2022-10-17T14:07:58.060Z,21.35
2022-10-17T14:08:37.449Z,21.32
2022-10-17T14:09:36.363Z,21.38
2022-10-17T14:10:36.385Z,21.35
2022-10-17T14:11:36.361Z,21.34
2022-10-17T14:12:36.389Z,21.31
2022-10-17T14:13:36.329Z,21.31
2022-10-17T14:14:51.984Z,21.31
2022-10-17T14:15:37.384Z,21.37
2022-10-17T14:16:36.307Z,21.40
2022-10-17T14:17:36.274Z,21.40
2022-10-17T14:18:36.853Z,21.38
2022-10-17T14:19:36.299Z,21.37
2022-10-17T14:21:44.157Z,21.35
2022-10-17T14:22:37.308Z,21.34
2022-10-17T14:23:36.227Z,21.31
2022-10-17T14:24:36.197Z,21.27
2022-10-17T14:25:36.216Z,21.32
2022-10-17T14:26:36.196Z,21.27
2022-10-17T14:27:36.171Z,21.24
2022-10-17T14:28:36.217Z,21.27
2022-10-17T14:29:36.207Z,21.19
2022-10-17T14:30:55.832Z,21.24
2022-10-17T14:31:37.140Z,21.28
2022-10-17T14:32:36.117Z,21.22
2022-10-17T14:33:38.522Z,21.16
2022-10-17T14:34:37.133Z,21.16
2022-10-17T14:35:41.939Z,21.21
2022-10-17T14:36:37.093Z,21.17
2022-10-17T14:37:36.069Z,21.14
2022-10-17T14:38:36.086Z,21.12
2022-10-17T14:39:36.060Z,21.10
2022-10-17T14:40:36.037Z,21.07
2022-10-17T14:41:44.120Z,20.98
2022-10-17T14:42:37.027Z,21.04
2022-10-17T14:43:36.018Z,20.97
2022-10-17T14:44:35.980Z,20.99
2022-10-17T14:45:35.992Z,20.98
2022-10-17T14:46:35.961Z,21.01
2022-10-17T14:47:43.682Z,21.01
2022-10-17T14:48:36.971Z,20.98
2022-10-17T14:49:35.964Z,21.01
2022-10-17T14:50:36.046Z,20.95
2022-10-17T14:51:44.928Z,20.98
2022-10-17T14:52:37.053Z,20.94
2022-10-17T14:53:35.885Z,20.97
2022-10-17T14:54:35.924Z,20.82
2022-10-17T14:55:35.882Z,20.88
2022-10-17T14:56:35.896Z,20.87
2022-10-17T14:57:35.849Z,20.91
2022-10-17T14:58:35.845Z,20.85
2022-10-17T14:59:53.384Z,20.84
2022-10-17T15:00:36.813Z,20.85
2022-10-17T15:01:35.837Z,20.87
2022-10-17T15:02:35.798Z,20.80
2022-10-17T15:03:35.849Z,20.84
2022-10-17T15:04:35.792Z,20.82
2022-10-17T15:05:35.777Z,20.74
2022-10-17T15:06:35.747Z,20.74
2022-10-17T15:07:35.734Z,20.76
2022-10-17T15:08:35.817Z,20.76
2022-10-17T15:09:35.709Z,20.84
2022-10-17T15:10:35.754Z,20.76
2022-10-17T15:11:35.684Z,20.73
2022-10-17T15:12:35.670Z,20.69
2022-10-17T15:13:40.958Z,20.57
2022-10-17T15:14:36.659Z,20.66
2022-10-17T15:15:35.684Z,20.69
2022-10-17T15:16:35.654Z,20.62
2022-10-17T15:17:35.716Z,20.58
2022-10-17T15:18:35.615Z,20.59
2022-10-17T15:19:35.619Z,20.52
2022-10-17T15:20:35.589Z,20.52
2022-10-17T15:21:43.205Z,20.41
2022-10-17T15:22:36.584Z,20.47
2022-10-17T15:23:35.556Z,20.47
2022-10-17T15:24:35.548Z,20.42
2022-10-17T15:25:35.539Z,20.50
2022-10-17T15:26:35.567Z,20.41
2022-10-17T15:27:35.584Z,20.43
2022-10-17T15:28:35.538Z,20.48
2022-10-17T15:29:35.509Z,20.42
2022-10-17T15:30:35.484Z,20.42
2022-10-17T15:31:35.485Z,20.36
2022-10-17T15:32:35.494Z,20.41
2022-10-17T15:33:35.467Z,20.32
2022-10-17T15:34:35.461Z,20.33
2022-10-17T15:35:35.427Z,20.28
2022-10-17T15:36:35.417Z,20.31
2022-10-17T15:37:35.457Z,20.20
2022-10-17T15:38:35.406Z,20.26
2022-10-17T15:39:35.430Z,20.26
2022-10-17T15:40:35.375Z,20.23
2022-10-17T15:41:35.367Z,20.18
2022-10-17T15:42:35.373Z,20.20
2022-10-17T15:43:35.373Z,20.17
2022-10-17T15:44:35.331Z,20.23
2022-10-17T15:45:35.317Z,20.14
2022-10-17T15:46:35.326Z,20.10
2022-10-17T15:47:35.301Z,20.20
2022-10-17T15:48:35.318Z,20.08
2022-10-17T15:49:35.283Z,20.11
2022-10-17T15:50:35.272Z,20.10
2022-10-17T15:51:35.264Z,20.11
2022-10-17T15:52:35.247Z,20.03
2022-10-17T15:53:35.278Z,20.10
2022-10-17T15:54:35.213Z,19.98
2022-10-17T15:55:35.267Z,19.98
2022-10-17T15:56:35.206Z,19.96
2022-10-17T15:57:35.183Z,19.87
2022-10-17T15:58:35.222Z,19.94
2022-10-17T15:59:35.188Z,19.95
2022-10-17T16:00:35.233Z,20.01
2022-10-17T16:01:35.159Z,19.98
2022-10-17T16:02:35.132Z,19.92
2022-10-17T16:03:35.121Z,19.94
2022-10-17T16:04:35.111Z,19.87
2022-10-17T16:05:35.131Z,19.86
2022-10-17T16:06:35.107Z,19.88
2022-10-17T16:07:35.072Z,19.83
2022-10-17T16:08:35.059Z,19.87
2022-10-17T16:09:35.047Z,19.83
2022-10-17T16:10:35.096Z,19.74
2022-10-17T16:11:35.061Z,19.73
2022-10-17T16:12:35.017Z,19.76
2022-10-17T16:13:35.015Z,19.76
2022-10-17T16:14:35.015Z,19.80
2022-10-17T16:15:34.990Z,19.78
2022-10-17T16:16:35.014Z,19.71
2022-10-17T16:17:34.973Z,19.74
2022-10-17T16:18:34.965Z,19.62
2022-10-17T16:19:34.995Z,19.63
2022-10-17T16:20:34.975Z,19.66
2022-10-17T16:21:34.932Z,19.63
2022-10-17T16:22:34.935Z,19.62
2022-10-17T16:23:34.898Z,19.59
2022-10-17T16:24:34.910Z,19.54
2022-10-17T16:25:34.911Z,19.59
2022-10-17T16:26:34.877Z,19.56
2022-10-17T16:27:34.863Z,19.61
2022-10-17T16:28:34.881Z,19.46
2022-10-17T16:29:34.862Z,19.44
2022-10-17T16:30:34.858Z,19.40
2022-10-17T16:31:34.875Z,19.40
2022-10-17T16:32:34.811Z,19.37
2022-10-17T16:33:34.810Z,19.40
2022-10-17T16:34:34.783Z,19.44
2022-10-17T16:35:37.482Z,19.37
2022-10-17T16:36:34.763Z,19.39
2022-10-17T16:37:34.770Z,19.41
2022-10-17T16:38:34.764Z,19.39
2022-10-17T16:39:34.739Z,19.36
2022-10-17T16:40:34.705Z,19.25
2022-10-17T16:41:34.715Z,19.29
2022-10-17T16:42:34.700Z,19.29
2022-10-17T16:43:34.709Z,19.28
2022-10-17T16:44:34.666Z,19.23
2022-10-17T16:45:34.661Z,19.19
2022-10-17T16:46:34.710Z,19.21
2022-10-17T16:47:34.647Z,19.26
2022-10-17T16:48:34.810Z,19.10
2022-10-17T16:49:34.611Z,19.18
2022-10-17T16:50:34.628Z,19.28
2022-10-17T16:51:34.623Z,19.18
2022-10-17T16:52:34.605Z,19.16
2022-10-17T16:53:34.580Z,19.16
2022-10-17T16:54:34.566Z,19.13
2022-10-17T16:55:34.602Z,19.18
2022-10-17T16:56:34.570Z,19.11
2022-10-17T16:57:34.646Z,19.06
2022-10-17T16:58:34.590Z,19.08
2022-10-17T16:59:34.573Z,19.06
2022-10-17T17:00:34.625Z,19.08
2022-10-17T17:01:34.492Z,19.06
2022-10-17T17:02:34.764Z,19.00
2022-10-17T17:03:34.488Z,19.02
2022-10-17T17:04:34.455Z,19.02
2022-10-17T17:05:34.459Z,18.94
2022-10-17T17:06:34.481Z,19.06
2022-10-17T17:07:34.427Z,19.02
2022-10-17T17:08:34.415Z,19.02
2022-10-17T17:09:34.438Z,18.90
2022-10-17T17:10:34.423Z,18.98
2022-10-17T17:11:34.386Z,19.07
2022-10-17T17:12:34.425Z,18.91
2022-10-17T17:13:34.366Z,18.91
2022-10-17T17:14:34.375Z,18.88
2022-10-17T17:15:34.365Z,18.88
2022-10-17T17:16:34.321Z,18.99
2022-10-17T17:17:52.396Z,18.92
2022-10-17T17:18:35.332Z,18.87
2022-10-17T17:19:34.306Z,18.90
2022-10-17T17:20:34.319Z,18.95
2022-10-17T17:21:34.266Z,18.92
2022-10-17T17:22:34.267Z,18.92
2022-10-17T17:23:34.258Z,18.82
2022-10-17T17:24:34.254Z,18.84
2022-10-17T17:25:34.273Z,18.90
2022-10-17T17:26:34.226Z,18.88
2022-10-17T17:27:34.195Z,18.94